Time;durP1;ratioP1;P1;durP2;ratioP2;P2;SDS_P1;SDS_P2;PMS_P1;PMS_P2;Temp;Humidity;BMP_temperature;BMP_pressure;BME280_temperature;BME280_humidity;BME280_pressure;Samples;Min_cycle;Max_cycle;Signal;HPM_P1;HPM_P2
2023/06/07 00:00:37;;;;;;;14.43;10.20;;;;;;;;;;5113256;28;20116;-73
2023/06/07 00:03:09;;;;;;;14.85;10.40;;;;;;;;;;5112441;28;20308;-73
2023/06/07 00:05:38;;;;;;;14.50;10.35;;;;;;;;;;5114836;28;20504;-74
2023/06/07 00:08:06;;;;;;;16.38;9.82;;;;;;;;;;5114797;28;20019;-73
2023/06/07 00:10:33;;;;;;;10.52;8.63;;;;;;;;;;5114674;28;20016;-73
2023/06/07 00:12:59;;;;;;;12.73;10.52;;;;;;;;;;5114581;28;20020;-72
2023/06/07 00:15:25;;;;;;;14.75;10.55;;;;;;;;;;5114448;28;20023;-72
2023/06/07 00:17:51;;;;;;;14.40;11.30;;;;;;;;;;5114810;28;20020;-73
2023/06/07 00:20:17;;;;;;;15.07;10.93;;;;;;;;;;5114572;28;20027;-73
2023/06/07 00:22:43;;;;;;;15.75;11.07;;;;;;;;;;5114509;28;20069;-73
2023/06/07 00:25:10;;;;;;;13.57;11.45;;;;;;;;;;5114361;28;20023;-73
2023/06/07 00:27:36;;;;;;;16.05;10.48;;;;;;;;;;5115078;28;20020;-73
2023/06/07 00:30:03;;;;;;;14.10;10.65;;;;;;;;;;5078929;28;20034;-72
2023/06/07 00:32:31;;;;;;;16.20;11.48;;;;;;;;;;5114104;28;20028;-71
2023/06/07 00:34:58;;;;;;;13.43;11.30;;;;;;;;;;5114341;28;20094;-72
2023/06/07 00:37:24;;;;;;;14.43;10.55;;;;;;;;;;5114352;28;20030;-73
2023/06/07 00:39:50;;;;;;;15.07;10.20;;;;;;;;;;5115428;28;20024;-73
2023/06/07 00:42:15;;;;;;;13.35;10.85;;;;;;;;;;5114552;28;20026;-72
2023/06/07 00:44:41;;;;;;;14.10;11.00;;;;;;;;;;5095129;28;20118;-73
2023/06/07 00:47:07;;;;;;;14.43;10.77;;;;;;;;;;5114215;28;20364;-71
2023/06/07 00:49:33;;;;;;;14.40;10.73;;;;;;;;;;5114697;28;20261;-71
2023/06/07 00:52:07;;;;;;;14.15;10.43;;;;;;;;;;5114149;28;20106;-72
2023/06/07 00:54:32;;;;;;;10.70;9.60;;;;;;;;;;5095593;28;20456;-72
2023/06/07 00:56:59;;;;;;;13.27;10.13;;;;;;;;;;5113920;28;20023;-72
2023/06/07 00:59:25;;;;;;;15.05;12.15;;;;;;;;;;5113883;28;20019;-72
2023/06/07 01:01:55;;;;;;;19.13;10.35;;;;;;;;;;5113164;28;20103;-72
2023/06/07 01:04:23;;;;;;;15.77;11.10;;;;;;;;;;5114201;28;20041;-72
2023/06/07 01:06:52;;;;;;;16.60;10.85;;;;;;;;;;5095518;28;20036;-72
2023/06/07 01:09:24;;;;;;;14.65;10.77;;;;;;;;;;5113557;28;20020;-72
2023/06/07 01:11:52;;;;;;;17.15;10.73;;;;;;;;;;5113675;28;20019;-72
2023/06/07 01:14:27;;;;;;;17.77;10.20;;;;;;;;;;5095480;28;20384;-73
2023/06/07 01:16:53;;;;;;;12.50;10.40;;;;;;;;;;5113250;28;20148;-72
2023/06/07 01:19:22;;;;;;;12.23;10.25;;;;;;;;;;5094151;28;20118;-72
2023/06/07 01:22:04;;;;;;;21.33;10.23;;;;;;;;;;5112109;28;20024;-71
2023/06/07 01:24:29;;;;;;;13.57;9.60;;;;;;;;;;5112625;28;20467;-72
2023/06/07 01:26:57;;;;;;;11.57;9.40;;;;;;;;;;5112634;28;20580;-72
2023/06/07 01:29:24;;;;;;;11.63;10.38;;;;;;;;;;5112221;28;20153;-72
2023/06/07 01:31:50;;;;;;;14.82;10.48;;;;;;;;;;5094713;28;20102;-72
2023/06/07 01:34:19;;;;;;;14.05;10.80;;;;;;;;;;5093933;28;20027;-71
2023/06/07 01:36:46;;;;;;;12.77;10.27;;;;;;;;;;5112234;28;20032;-72
2023/06/07 01:39:12;;;;;;;14.32;10.05;;;;;;;;;;5111789;28;20031;-72
2023/06/07 01:41:44;;;;;;;13.00;9.45;;;;;;;;;;5112507;28;20045;-72
2023/06/07 01:44:11;;;;;;;11.15;9.20;;;;;;;;;;5112014;28;20461;-72
2023/06/07 01:46:37;;;;;;;10.95;9.85;;;;;;;;;;5112459;28;20040;-73
2023/06/07 01:49:03;;;;;;;11.48;8.45;;;;;;;;;;5093831;28;20050;-72
2023/06/07 01:51:29;;;;;;;14.02;9.20;;;;;;;;;;5113631;28;20476;-73
2023/06/07 01:53:56;;;;;;;13.65;9.32;;;;;;;;;;5113350;28;20047;-72
2023/06/07 01:56:40;;;;;;;10.15;8.85;;;;;;;;;;5113359;28;20027;-74
2023/06/07 01:59:11;;;;;;;12.70;9.35;;;;;;;;;;5113773;28;20028;-73
2023/06/07 02:01:45;;;;;;;10.95;9.40;;;;;;;;;;5113300;28;20028;-73
2023/06/07 02:04:13;;;;;;;13.57;9.55;;;;;;;;;;5113402;28;20067;-72
2023/06/07 02:06:43;;;;;;;14.00;8.75;;;;;;;;;;5094899;28;20027;-73
2023/06/07 02:09:11;;;;;;;11.70;10.27;;;;;;;;;;5095048;28;20088;-73
2023/06/07 02:11:40;;;;;;;14.20;10.05;;;;;;;;;;5094826;28;20020;-73
2023/06/07 02:14:07;;;;;;;11.02;9.32;;;;;;;;;;5113325;28;20077;-72
2023/06/07 02:16:35;;;;;;;16.27;9.35;;;;;;;;;;5094880;28;20380;-72
2023/06/07 02:19:09;;;;;;;12.38;9.43;;;;;;;;;;5094801;28;20024;-74
2023/06/07 02:21:35;;;;;;;9.50;8.55;;;;;;;;;;5094637;28;20039;-72
2023/06/07 02:24:01;;;;;;;11.70;9.68;;;;;;;;;;5096875;28;20016;-73
2023/06/07 02:26:27;;;;;;;11.77;9.02;;;;;;;;;;5116768;28;20039;-73
2023/06/07 02:28:53;;;;;;;11.27;9.05;;;;;;;;;;5098605;28;20048;-73
2023/06/07 02:31:20;;;;;;;14.45;9.18;;;;;;;;;;5117121;28;20080;-73
2023/06/07 02:33:50;;;;;;;11.68;9.18;;;;;;;;;;5116481;28;20030;-73
2023/06/07 02:36:25;;;;;;;10.60;8.50;;;;;;;;;;5098158;28;20024;-72
2023/06/07 02:38:52;;;;;;;10.30;8.30;;;;;;;;;;5116425;28;20047;-73
2023/06/07 02:41:19;;;;;;;17.38;8.98;;;;;;;;;;5116192;28;20027;-73
2023/06/07 02:43:45;;;;;;;12.75;8.82;;;;;;;;;;5116578;28;20022;-73
2023/06/07 02:46:11;;;;;;;12.80;9.98;;;;;;;;;;5116390;28;20011;-72
2023/06/07 02:48:38;;;;;;;12.80;9.45;;;;;;;;;;5116490;28;20361;-72
2023/06/07 02:51:03;;;;;;;10.57;8.82;;;;;;;;;;5116310;28;20050;-72
2023/06/07 02:53:30;;;;;;;10.48;8.45;;;;;;;;;;5116329;28;20019;-74
2023/06/07 02:55:56;;;;;;;11.82;9.30;;;;;;;;;;5116194;28;20020;-72
2023/06/07 02:58:22;;;;;;;11.93;8.70;;;;;;;;;;5116058;28;20155;-72
2023/06/07 03:00:54;;;;;;;10.65;8.40;;;;;;;;;;5116785;28;20035;-71
2023/06/07 03:03:19;;;;;;;11.20;9.10;;;;;;;;;;5115791;28;20074;-73
2023/06/07 03:05:48;;;;;;;12.18;8.63;;;;;;;;;;5116335;28;20453;-74
2023/06/07 03:08:14;;;;;;;11.98;8.95;;;;;;;;;;5115730;28;20042;-72
2023/06/07 03:10:40;;;;;;;12.15;9.18;;;;;;;;;;5116035;28;20038;-72
2023/06/07 03:13:05;;;;;;;10.95;8.98;;;;;;;;;;5115990;28;20027;-72
2023/06/07 03:15:37;;;;;;;12.98;8.48;;;;;;;;;;5116092;28;20368;-71
2023/06/07 03:18:03;;;;;;;11.50;8.35;;;;;;;;;;5115919;28;20361;-71
2023/06/07 03:20:34;;;;;;;11.20;8.15;;;;;;;;;;5115520;28;20092;-71
2023/06/07 03:23:00;;;;;;;9.13;7.85;;;;;;;;;;5115372;28;20055;-72
2023/06/07 03:25:26;;;;;;;9.93;7.60;;;;;;;;;;5115620;28;20031;-72
2023/06/07 03:27:52;;;;;;;10.77;8.57;;;;;;;;;;5115366;28;20041;-71
2023/06/07 03:30:17;;;;;;;11.10;8.32;;;;;;;;;;5115310;28;20114;-71
2023/06/07 03:32:43;;;;;;;10.93;8.47;;;;;;;;;;5115180;28;20023;-72
2023/06/07 03:35:09;;;;;;;13.88;8.40;;;;;;;;;;5114798;28;20272;-73
2023/06/07 03:37:35;;;;;;;13.68;9.15;;;;;;;;;;5115368;28;20032;-71
2023/06/07 03:40:03;;;;;;;12.50;8.70;;;;;;;;;;5115475;28;20039;-71
2023/06/07 03:42:29;;;;;;;12.30;9.80;;;;;;;;;;5115020;28;20662;-71
2023/06/07 03:44:55;;;;;;;11.85;9.25;;;;;;;;;;5115237;28;20016;-72
2023/06/07 03:47:20;;;;;;;12.13;9.48;;;;;;;;;;5114305;28;20088;-72
2023/06/07 03:49:52;;;;;;;15.18;11.68;;;;;;;;;;5096763;28;20062;-73
2023/06/07 03:52:25;;;;;;;16.70;10.82;;;;;;;;;;5115253;28;20023;-72
2023/06/07 03:54:52;;;;;;;14.13;10.82;;;;;;;;;;5114926;28;20043;-72
2023/06/07 03:57:18;;;;;;;16.27;10.23;;;;;;;;;;5114955;28;20023;-72
2023/06/07 03:59:44;;;;;;;15.13;10.35;;;;;;;;;;5115165;28;20072;-71
2023/06/07 04:02:11;;;;;;;19.13;12.10;;;;;;;;;;5114248;28;20043;-71
2023/06/07 04:04:38;;;;;;;24.95;14.32;;;;;;;;;;5097005;28;20027;-72
2023/06/07 04:07:07;;;;;;;28.38;16.05;;;;;;;;;;5114711;28;20019;-72
2023/06/07 04:09:32;;;;;;;27.77;15.73;;;;;;;;;;5114548;28;20020;-71
2023/06/07 04:11:58;;;;;;;30.38;17.05;;;;;;;;;;5114503;28;20031;-73
2023/06/07 04:14:24;;;;;;;26.50;15.38;;;;;;;;;;5114479;28;20038;-71
2023/06/07 04:16:50;;;;;;;29.02;16.58;;;;;;;;;;5114664;28;20023;-71
2023/06/07 04:19:19;;;;;;;26.63;15.43;;;;;;;;;;5114438;28;20032;-71
2023/06/07 04:21:45;;;;;;;26.77;14.82;;;;;;;;;;5114180;28;20107;-73
2023/06/07 04:24:11;;;;;;;25.77;14.80;;;;;;;;;;5114356;28;20007;-71
2023/06/07 04:26:37;;;;;;;25.40;15.33;;;;;;;;;;5114637;28;20018;-72
2023/06/07 04:29:04;;;;;;;27.33;15.35;;;;;;;;;;5114689;28;20310;-73
2023/06/07 04:31:34;;;;;;;26.92;15.35;;;;;;;;;;5114113;28;20098;-73
2023/06/07 04:34:05;;;;;;;23.65;14.55;;;;;;;;;;5114106;28;20503;-73
2023/06/07 04:36:37;;;;;;;24.10;14.18;;;;;;;;;;5114161;28;20022;-71
2023/06/07 04:39:05;;;;;;;19.27;12.93;;;;;;;;;;5114289;28;20024;-70
2023/06/07 04:41:35;;;;;;;16.45;11.40;;;;;;;;;;5114059;28;20521;-71
2023/06/07 04:44:03;;;;;;;21.55;12.98;;;;;;;;;;5113962;28;20095;-72
2023/06/07 04:46:30;;;;;;;21.50;14.73;;;;;;;;;;5113732;28;20091;-70
2023/06/07 04:48:58;;;;;;;27.20;15.43;;;;;;;;;;5114188;28;20015;-69
2023/06/07 04:51:30;;;;;;;26.55;15.13;;;;;;;;;;5114017;28;20019;-71
2023/06/07 04:53:58;;;;;;;20.17;14.35;;;;;;;;;;5114341;28;20062;-73
2023/06/07 04:56:27;;;;;;;20.67;14.20;;;;;;;;;;5113926;28;20023;-74
2023/06/07 04:58:53;;;;;;;26.35;13.85;;;;;;;;;;5113927;28;20024;-74
2023/06/07 05:01:20;;;;;;;21.27;12.50;;;;;;;;;;5095825;28;20031;-72
2023/06/07 05:03:49;;;;;;;15.10;11.38;;;;;;;;;;5113638;28;20052;-72
2023/06/07 05:06:19;;;;;;;16.38;11.73;;;;;;;;;;5095748;28;20023;-71
2023/06/07 05:08:45;;;;;;;16.95;11.27;;;;;;;;;;5114123;28;20007;-72
2023/06/07 05:11:10;;;;;;;16.38;10.60;;;;;;;;;;5114026;28;20020;-71
2023/06/07 05:13:36;;;;;;;15.65;10.90;;;;;;;;;;5114249;28;20023;-72
2023/06/07 05:16:02;;;;;;;14.63;9.53;;;;;;;;;;5114097;28;20024;-72
2023/06/07 05:18:29;;;;;;;16.25;10.52;;;;;;;;;;5114449;28;20269;-72
2023/06/07 05:20:55;;;;;;;14.00;9.77;;;;;;;;;;5113725;28;20015;-72
2023/06/07 05:23:21;;;;;;;18.90;11.13;;;;;;;;;;5113803;28;20016;-73
2023/06/07 05:25:47;;;;;;;13.00;9.82;;;;;;;;;;5113157;28;20016;-73
2023/06/07 05:28:12;;;;;;;16.23;10.73;;;;;;;;;;5114236;28;20084;-71
2023/06/07 05:30:38;;;;;;;18.88;11.15;;;;;;;;;;5113770;28;20260;-72
2023/06/07 05:33:05;;;;;;;20.27;11.88;;;;;;;;;;5113707;28;20026;-71
2023/06/07 05:35:31;;;;;;;15.88;10.18;;;;;;;;;;5095295;28;20027;-72
2023/06/07 05:37:58;;;;;;;14.23;9.68;;;;;;;;;;5113750;28;20099;-71
2023/06/07 05:40:23;;;;;;;14.82;9.95;;;;;;;;;;5113769;28;20091;-72
2023/06/07 05:42:50;;;;;;;13.73;9.77;;;;;;;;;;5113515;28;20465;-71
2023/06/07 05:45:16;;;;;;;12.80;9.45;;;;;;;;;;5113137;28;20614;-71
2023/06/07 05:47:43;;;;;;;15.27;11.10;;;;;;;;;;5112517;28;20016;-71
2023/06/07 05:50:10;;;;;;;13.20;10.73;;;;;;;;;;5112377;28;20126;-73
2023/06/07 05:52:40;;;;;;;12.88;9.55;;;;;;;;;;5112305;28;20372;-73
2023/06/07 05:55:08;;;;;;;15.43;9.77;;;;;;;;;;5112245;28;20481;-71
2023/06/07 05:57:34;;;;;;;16.55;9.65;;;;;;;;;;5113982;28;20027;-70
2023/06/07 05:59:59;;;;;;;11.73;9.48;;;;;;;;;;5116445;28;20023;-71
2023/06/07 06:02:26;;;;;;;13.97;10.47;;;;;;;;;;5116066;28;20147;-71
2023/06/07 06:04:53;;;;;;;14.48;10.43;;;;;;;;;;5117470;28;20269;-72
2023/06/07 06:07:19;;;;;;;15.40;9.60;;;;;;;;;;5116620;28;20058;-71
2023/06/07 06:09:47;;;;;;;11.90;9.40;;;;;;;;;;5115971;28;20050;-71
2023/06/07 06:12:12;;;;;;;12.48;9.32;;;;;;;;;;5116342;28;20020;-72
2023/06/07 06:14:38;;;;;;;14.05;9.20;;;;;;;;;;5115913;28;20038;-71
2023/06/07 06:17:19;;;;;;;15.85;10.27;;;;;;;;;;5097644;28;20019;-70
2023/06/07 06:19:45;;;;;;;11.13;9.38;;;;;;;;;;5115810;28;20058;-70
2023/06/07 06:22:10;;;;;;;11.95;8.68;;;;;;;;;;5114406;28;20027;-74
2023/06/07 06:24:36;;;;;;;11.57;9.27;;;;;;;;;;5117190;28;20061;-71
2023/06/07 06:27:03;;;;;;;10.73;8.65;;;;;;;;;;5115742;28;20684;-70
2023/06/07 06:29:29;;;;;;;17.85;9.57;;;;;;;;;;5116981;28;20015;-71
2023/06/07 06:31:55;;;;;;;11.70;9.50;;;;;;;;;;5116602;28;20012;-71
2023/06/07 06:34:22;;;;;;;10.15;9.10;;;;;;;;;;5116777;28;20023;-71
2023/06/07 06:36:49;;;;;;;12.40;8.70;;;;;;;;;;5116472;28;20023;-71
2023/06/07 06:39:15;;;;;;;13.13;8.95;;;;;;;;;;5116418;28;20015;-70
2023/06/07 06:41:41;;;;;;;14.07;9.30;;;;;;;;;;5116828;28;20031;-73
2023/06/07 06:44:07;;;;;;;17.85;9.73;;;;;;;;;;5117090;28;20061;-71
2023/06/07 06:46:32;;;;;;;24.42;9.65;;;;;;;;;;5116748;28;20022;-73
2023/06/07 06:48:59;;;;;;;12.95;9.23;;;;;;;;;;5116412;28;20104;-72
2023/06/07 06:51:24;;;;;;;13.43;9.50;;;;;;;;;;5116655;28;20031;-71
2023/06/07 06:53:50;;;;;;;11.32;9.40;;;;;;;;;;5115924;28;20116;-72
2023/06/07 06:56:15;;;;;;;11.70;9.10;;;;;;;;;;5116043;28;20102;-72
2023/06/07 06:58:41;;;;;;;11.55;8.90;;;;;;;;;;5116076;28;20016;-73
2023/06/07 07:01:07;;;;;;;13.45;9.73;;;;;;;;;;5115954;28;20054;-70
2023/06/07 07:03:32;;;;;;;14.07;9.70;;;;;;;;;;5115670;28;20040;-72
2023/06/07 07:05:57;;;;;;;10.70;9.35;;;;;;;;;;5116226;28;20015;-71
2023/06/07 07:08:23;;;;;;;13.80;9.32;;;;;;;;;;5115803;28;20012;-72
2023/06/07 07:10:48;;;;;;;15.32;9.55;;;;;;;;;;5115807;28;20023;-71
2023/06/07 07:13:14;;;;;;;12.67;9.33;;;;;;;;;;5116228;28;20353;-72
2023/06/07 07:15:40;;;;;;;12.15;8.93;;;;;;;;;;5116175;28;20309;-71
2023/06/07 07:18:07;;;;;;;13.48;9.82;;;;;;;;;;5115941;28;20019;-71
2023/06/07 07:20:32;;;;;;;12.55;9.38;;;;;;;;;;5115671;28;20598;-72
2023/06/07 07:22:59;;;;;;;13.27;8.20;;;;;;;;;;5116073;28;20098;-72
2023/06/07 07:25:24;;;;;;;11.68;9.43;;;;;;;;;;5116058;28;20366;-72
2023/06/07 07:27:50;;;;;;;12.93;9.53;;;;;;;;;;5115669;28;20495;-73
2023/06/07 07:30:15;;;;;;;11.95;9.20;;;;;;;;;;5115581;28;20336;-71
2023/06/07 07:32:40;;;;;;;14.05;9.60;;;;;;;;;;5115479;28;20027;-71
2023/06/07 07:35:06;;;;;;;12.63;9.77;;;;;;;;;;5115842;28;20030;-71
2023/06/07 07:37:31;;;;;;;18.58;10.13;;;;;;;;;;5115988;28;20015;-72
2023/06/07 07:39:57;;;;;;;13.18;9.25;;;;;;;;;;5116052;28;20472;-71
2023/06/07 07:42:22;;;;;;;18.77;9.52;;;;;;;;;;5115479;28;20031;-70
2023/06/07 07:44:47;;;;;;;19.67;10.00;;;;;;;;;;5115350;28;20076;-70
2023/06/07 07:47:12;;;;;;;16.20;9.57;;;;;;;;;;5115052;28;20023;-70
2023/06/07 07:49:38;;;;;;;16.30;10.10;;;;;;;;;;5115060;28;20253;-71
2023/06/07 07:52:03;;;;;;;12.15;9.18;;;;;;;;;;5115072;28;20659;-73
2023/06/07 07:54:29;;;;;;;13.75;10.35;;;;;;;;;;5115311;28;20030;-71
2023/06/07 07:56:54;;;;;;;18.45;9.68;;;;;;;;;;5115171;28;20034;-71
2023/06/07 07:59:20;;;;;;;16.85;9.15;;;;;;;;;;5114968;28;20021;-70
2023/06/07 08:01:45;;;;;;;10.77;7.72;;;;;;;;;;5114792;28;20103;-71
2023/06/07 08:04:10;;;;;;;17.70;9.43;;;;;;;;;;5114374;28;20109;-72
2023/06/07 08:06:38;;;;;;;11.63;9.05;;;;;;;;;;5114944;28;20036;-70
2023/06/07 08:09:03;;;;;;;12.45;8.90;;;;;;;;;;5115234;28;20098;-71
2023/06/07 08:11:28;;;;;;;10.55;8.63;;;;;;;;;;5114566;28;20508;-72
2023/06/07 08:13:54;;;;;;;14.05;8.85;;;;;;;;;;5114286;28;20019;-73
2023/06/07 08:16:19;;;;;;;11.07;8.77;;;;;;;;;;5114254;28;20023;-71
2023/06/07 08:18:49;;;;;;;12.40;8.65;;;;;;;;;;5114189;28;20015;-71
2023/06/07 08:21:14;;;;;;;12.95;9.00;;;;;;;;;;5113632;28;20023;-71
2023/06/07 08:23:41;;;;;;;10.35;8.60;;;;;;;;;;5114929;28;20350;-71
2023/06/07 08:26:06;;;;;;;11.07;9.18;;;;;;;;;;5114734;28;20027;-70
2023/06/07 08:28:31;;;;;;;12.03;8.87;;;;;;;;;;5096325;28;20012;-71
2023/06/07 08:30:56;;;;;;;11.77;8.93;;;;;;;;;;5096205;28;20385;-72
2023/06/07 08:33:22;;;;;;;14.43;9.60;;;;;;;;;;5114271;28;20280;-72
2023/06/07 08:35:47;;;;;;;12.77;9.97;;;;;;;;;;5114562;28;20265;-71
2023/06/07 08:38:12;;;;;;;14.30;10.15;;;;;;;;;;5114361;28;20354;-71
2023/06/07 08:40:38;;;;;;;13.15;9.88;;;;;;;;;;5114091;28;20016;-71
2023/06/07 08:43:03;;;;;;;13.73;9.45;;;;;;;;;;5095743;28;20015;-71
2023/06/07 08:45:28;;;;;;;16.73;9.47;;;;;;;;;;5114091;28;20015;-70
2023/06/07 08:47:56;;;;;;;15.17;7.93;;;;;;;;;;5113965;28;20267;-72
2023/06/07 08:50:21;;;;;;;14.27;8.93;;;;;;;;;;5114021;28;20580;-70
2023/06/07 08:52:50;;;;;;;17.60;8.73;;;;;;;;;;5114267;28;20015;-71
2023/06/07 08:55:16;;;;;;;19.33;8.52;;;;;;;;;;5113918;28;20415;-74
2023/06/07 08:57:45;;;;;;;11.75;7.93;;;;;;;;;;5113835;28;20015;-72
2023/06/07 09:00:11;;;;;;;12.40;7.03;;;;;;;;;;5113968;28;20062;-72
2023/06/07 09:02:36;;;;;;;14.32;7.57;;;;;;;;;;5113199;28;20067;-72
2023/06/07 09:05:05;;;;;;;15.03;7.57;;;;;;;;;;5114146;28;20125;-70
2023/06/07 09:07:31;;;;;;;11.80;7.22;;;;;;;;;;5114115;28;20265;-71
2023/06/07 09:09:56;;;;;;;9.60;6.50;;;;;;;;;;5113914;28;20027;-70
2023/06/07 09:12:21;;;;;;;9.60;7.17;;;;;;;;;;5113808;28;20022;-71
2023/06/07 09:14:46;;;;;;;16.03;7.23;;;;;;;;;;5114038;28;20660;-71
2023/06/07 09:17:12;;;;;;;11.00;6.65;;;;;;;;;;5114238;28;20032;-75
2023/06/07 09:19:37;;;;;;;12.10;5.80;;;;;;;;;;5114118;28;20027;-74
2023/06/07 09:22:03;;;;;;;13.83;7.23;;;;;;;;;;5113917;28;20019;-74
2023/06/07 09:24:30;;;;;;;12.20;7.18;;;;;;;;;;5113723;28;20046;-75
2023/06/07 09:26:56;;;;;;;11.13;6.68;;;;;;;;;;5113674;28;20417;-74
2023/06/07 09:29:21;;;;;;;9.60;5.68;;;;;;;;;;5113499;28;20043;-74
2023/06/07 09:31:46;;;;;;;10.43;5.78;;;;;;;;;;5113957;28;20471;-75
2023/06/07 09:34:22;;;;;;;14.13;6.13;;;;;;;;;;5117812;28;20353;-74
2023/06/07 09:36:49;;;;;;;11.52;6.50;;;;;;;;;;5118008;28;20769;-74
2023/06/07 09:39:22;;;;;;;13.13;6.82;;;;;;;;;;5117790;28;20106;-76
2023/06/07 09:41:48;;;;;;;8.02;6.25;;;;;;;;;;5117622;28;20528;-74
2023/06/07 09:44:26;;;;;;;8.50;5.70;;;;;;;;;;5117733;28;20103;-74
2023/06/07 09:46:52;;;;;;;13.30;5.93;;;;;;;;;;5117723;28;20030;-75
2023/06/07 09:49:23;;;;;;;11.43;5.95;;;;;;;;;;5117596;28;20016;-74
2023/06/07 09:51:51;;;;;;;9.43;5.55;;;;;;;;;;5117537;28;20047;-75
2023/06/07 09:54:16;;;;;;;11.38;5.07;;;;;;;;;;5117359;28;20059;-75
2023/06/07 09:56:42;;;;;;;13.13;6.13;;;;;;;;;;5117296;28;20051;-74
2023/06/07 09:59:08;;;;;;;11.75;6.60;;;;;;;;;;5117618;28;20265;-74
2023/06/07 10:01:35;;;;;;;16.83;5.97;;;;;;;;;;5098775;28;20476;-74
2023/06/07 10:04:01;;;;;;;11.00;6.10;;;;;;;;;;5116947;28;20139;-74
2023/06/07 10:06:27;;;;;;;10.05;6.32;;;;;;;;;;5117109;28;20488;-75
2023/06/07 10:08:54;;;;;;;9.27;6.03;;;;;;;;;;5116967;28;20019;-76
2023/06/07 10:11:20;;;;;;;12.68;6.72;;;;;;;;;;5116929;28;20020;-73
2023/06/07 10:13:45;;;;;;;12.82;6.47;;;;;;;;;;5117184;28;20015;-73
2023/06/07 10:16:13;;;;;;;12.15;5.60;;;;;;;;;;5117173;28;20076;-72
2023/06/07 10:18:39;;;;;;;12.30;6.20;;;;;;;;;;5098627;28;20047;-73
2023/06/07 10:21:18;;;;;;;13.52;5.97;;;;;;;;;;5116946;28;20019;-73
2023/06/07 10:23:53;;;;;;;12.88;6.45;;;;;;;;;;5116827;28;20099;-73
2023/06/07 10:26:28;;;;;;;14.00;5.80;;;;;;;;;;5117319;28;20024;-73
2023/06/07 10:28:58;;;;;;;8.02;5.55;;;;;;;;;;5116914;28;20369;-73
2023/06/07 10:31:27;;;;;;;11.77;6.10;;;;;;;;;;5116544;28;20376;-73
2023/06/07 10:33:55;;;;;;;14.82;6.18;;;;;;;;;;5116890;28;20030;-73
2023/06/07 10:36:23;;;;;;;13.80;6.93;;;;;;;;;;5116524;28;20023;-73
2023/06/07 10:38:49;;;;;;;9.40;6.03;;;;;;;;;;5116732;28;20086;-72
2023/06/07 10:41:15;;;;;;;10.77;6.40;;;;;;;;;;5116514;28;20019;-73
2023/06/07 10:43:40;;;;;;;12.32;6.20;;;;;;;;;;5097584;28;20019;-72
2023/06/07 10:46:23;;;;;;;16.40;6.97;;;;;;;;;;5116569;28;20088;-73
2023/06/07 10:48:48;;;;;;;10.48;6.82;;;;;;;;;;5116257;28;20478;-73
2023/06/07 10:51:15;;;;;;;9.60;6.55;;;;;;;;;;5116546;28;20012;-72
2023/06/07 10:53:53;;;;;;;9.90;6.55;;;;;;;;;;5116696;28;20032;-73
2023/06/07 10:56:26;;;;;;;15.85;6.88;;;;;;;;;;5116350;28;20110;-72
2023/06/07 10:58:51;;;;;;;8.95;6.32;;;;;;;;;;5116688;28;20040;-72
2023/06/07 11:01:24;;;;;;;11.05;5.95;;;;;;;;;;5115789;28;20015;-73
2023/06/07 11:03:50;;;;;;;13.02;6.38;;;;;;;;;;5115481;28;20114;-71
2023/06/07 11:06:15;;;;;;;10.27;6.20;;;;;;;;;;5116331;28;20015;-72
2023/06/07 11:08:40;;;;;;;12.17;6.70;;;;;;;;;;5116134;28;20024;-73
2023/06/07 11:11:25;;;;;;;8.98;5.68;;;;;;;;;;5115722;28;20318;-73
2023/06/07 11:13:54;;;;;;;10.70;6.10;;;;;;;;;;5115752;28;20023;-73
2023/06/07 11:16:25;;;;;;;10.85;5.70;;;;;;;;;;5115819;28;20110;-73
2023/06/07 11:18:54;;;;;;;13.52;6.38;;;;;;;;;;5115829;28;20053;-73
2023/06/07 11:21:19;;;;;;;8.82;5.53;;;;;;;;;;5115491;28;20020;-72
2023/06/07 11:23:45;;;;;;;8.88;5.78;;;;;;;;;;5115594;28;20023;-72
2023/06/07 11:26:11;;;;;;;6.32;5.65;;;;;;;;;;5115853;28;20103;-73
2023/06/07 11:28:38;;;;;;;7.90;5.28;;;;;;;;;;5115790;28;20020;-72
2023/06/07 11:31:04;;;;;;;7.75;5.50;;;;;;;;;;5115834;28;20011;-73
2023/06/07 11:33:30;;;;;;;8.75;4.55;;;;;;;;;;5115754;28;20023;-72
2023/06/07 11:35:56;;;;;;;6.97;4.70;;;;;;;;;;5115458;28;20089;-72
2023/06/07 11:38:22;;;;;;;7.30;4.68;;;;;;;;;;5115324;28;20476;-72
2023/06/07 11:40:47;;;;;;;7.82;4.47;;;;;;;;;;5115823;28;20078;-73
2023/06/07 11:43:13;;;;;;;8.88;5.05;;;;;;;;;;5115151;28;20043;-72
2023/06/07 11:45:42;;;;;;;8.82;4.88;;;;;;;;;;5115225;28;20026;-73
2023/06/07 11:48:08;;;;;;;5.90;4.65;;;;;;;;;;5115601;28;20012;-73
2023/06/07 11:50:34;;;;;;;6.40;4.72;;;;;;;;;;5115165;28;20102;-74
2023/06/07 11:52:59;;;;;;;6.38;4.80;;;;;;;;;;5115379;28;20086;-71
2023/06/07 11:55:24;;;;;;;7.07;4.67;;;;;;;;;;5114633;28;20092;-73
2023/06/07 11:57:53;;;;;;;6.85;4.93;;;;;;;;;;5115152;28;20272;-72
2023/06/07 12:00:20;;;;;;;5.30;4.80;;;;;;;;;;5115136;28;20016;-72
2023/06/07 12:02:46;;;;;;;10.45;5.35;;;;;;;;;;5114601;28;20046;-72
2023/06/07 12:05:11;;;;;;;11.27;6.07;;;;;;;;;;5114712;28;20012;-73
2023/06/07 12:07:38;;;;;;;15.00;6.50;;;;;;;;;;5114808;28;20047;-73
2023/06/07 12:10:04;;;;;;;6.82;5.30;;;;;;;;;;5114705;28;20031;-73
2023/06/07 12:12:29;;;;;;;7.38;6.22;;;;;;;;;;5115195;28;20019;-73
2023/06/07 12:15:01;;;;;;;12.17;5.90;;;;;;;;;;5114781;28;20022;-72
2023/06/07 12:17:35;;;;;;;11.70;5.25;;;;;;;;;;5114619;28;20269;-72
2023/06/07 12:20:07;;;;;;;10.55;5.53;;;;;;;;;;5114592;28;20024;-71
2023/06/07 12:22:33;;;;;;;10.45;5.60;;;;;;;;;;5114286;28;20103;-71
2023/06/07 12:25:08;;;;;;;10.07;5.72;;;;;;;;;;5114769;28;20099;-73
2023/06/07 12:27:34;;;;;;;9.63;5.65;;;;;;;;;;5114551;28;20043;-72
2023/06/07 12:29:59;;;;;;;12.65;5.90;;;;;;;;;;5096215;28;20019;-72
2023/06/07 12:32:25;;;;;;;7.13;5.10;;;;;;;;;;5114652;28;20103;-72
2023/06/07 12:34:50;;;;;;;9.25;6.20;;;;;;;;;;5114461;28;20023;-72
2023/06/07 12:37:17;;;;;;;9.82;5.18;;;;;;;;;;5114344;28;20436;-72
2023/06/07 12:39:43;;;;;;;9.18;5.32;;;;;;;;;;5114246;28;20144;-72
2023/06/07 12:42:08;;;;;;;8.83;5.27;;;;;;;;;;5114134;28;20023;-73
2023/06/07 12:44:33;;;;;;;10.18;5.68;;;;;;;;;;5114076;28;20842;-72
2023/06/07 12:46:58;;;;;;;7.10;5.03;;;;;;;;;;5114083;28;20350;-72
2023/06/07 12:49:24;;;;;;;11.93;5.53;;;;;;;;;;5114249;28;20467;-72
2023/06/07 12:51:49;;;;;;;10.23;5.60;;;;;;;;;;5114102;28;20262;-72
2023/06/07 12:54:15;;;;;;;8.63;5.70;;;;;;;;;;5113872;28;20098;-72
2023/06/07 12:56:40;;;;;;;7.35;5.70;;;;;;;;;;5113944;28;20065;-72
2023/06/07 12:59:05;;;;;;;8.02;6.05;;;;;;;;;;5114074;28;20023;-70
2023/06/07 13:01:31;;;;;;;12.30;6.70;;;;;;;;;;5114037;28;20015;-72
2023/06/07 13:03:56;;;;;;;8.98;5.90;;;;;;;;;;5113481;28;20282;-71
2023/06/07 13:06:22;;;;;;;10.20;5.80;;;;;;;;;;5113888;28;20080;-72
2023/06/07 13:08:56;;;;;;;9.68;5.75;;;;;;;;;;5113405;28;20461;-70
2023/06/07 13:11:22;;;;;;;10.40;6.13;;;;;;;;;;5113744;28;20547;-70
2023/06/07 13:13:48;;;;;;;14.15;6.10;;;;;;;;;;5113819;28;20026;-70
2023/06/07 13:16:13;;;;;;;8.27;5.63;;;;;;;;;;5095441;28;20106;-71
2023/06/07 13:18:39;;;;;;;10.57;5.27;;;;;;;;;;5113686;28;20060;-72
2023/06/07 13:21:04;;;;;;;6.75;5.88;;;;;;;;;;5095261;28;20266;-71
2023/06/07 13:23:30;;;;;;;9.95;5.07;;;;;;;;;;5113381;28;20038;-71
2023/06/07 13:25:55;;;;;;;8.98;4.70;;;;;;;;;;5113793;28;20346;-69
2023/06/07 13:28:20;;;;;;;9.38;5.40;;;;;;;;;;5113797;28;20106;-70
2023/06/07 13:30:45;;;;;;;9.93;5.30;;;;;;;;;;5113922;28;20019;-70
2023/06/07 13:33:17;;;;;;;8.47;5.47;;;;;;;;;;5113429;28;20609;-71
2023/06/07 13:35:42;;;;;;;9.60;4.80;;;;;;;;;;5113510;28;20310;-71
2023/06/07 13:38:08;;;;;;;13.90;4.97;;;;;;;;;;5113535;28;20020;-75
2023/06/07 13:40:33;;;;;;;8.20;5.47;;;;;;;;;;5095293;28;20020;-74
2023/06/07 13:42:58;;;;;;;7.30;5.43;;;;;;;;;;5094483;28;20030;-73
2023/06/07 13:45:23;;;;;;;5.38;4.72;;;;;;;;;;5113334;28;20683;-77
2023/06/07 13:47:49;;;;;;;7.07;5.10;;;;;;;;;;5113212;28;20427;-73
2023/06/07 13:50:14;;;;;;;7.37;4.90;;;;;;;;;;5095316;28;20348;-73
2023/06/07 13:52:40;;;;;;;7.15;5.30;;;;;;;;;;5094934;28;20472;-73
2023/06/07 13:55:05;;;;;;;9.25;5.60;;;;;;;;;;5113180;28;20529;-74
2023/06/07 13:57:31;;;;;;;10.48;5.90;;;;;;;;;;5078033;28;20107;-74
2023/06/07 13:59:57;;;;;;;9.83;6.40;;;;;;;;;;5113259;28;20396;-74
2023/06/07 14:02:22;;;;;;;9.52;6.03;;;;;;;;;;5112771;28;20036;-75
2023/06/07 14:04:48;;;;;;;7.00;5.85;;;;;;;;;;5113136;28;20016;-76
2023/06/07 14:07:13;;;;;;;7.63;5.65;;;;;;;;;;5113503;28;20012;-77
2023/06/07 14:09:39;;;;;;;11.27;5.85;;;;;;;;;;5094787;28;20472;-75
2023/06/07 14:12:04;;;;;;;8.43;6.07;;;;;;;;;;5113279;28;20061;-73
2023/06/07 14:14:29;;;;;;;9.60;6.28;;;;;;;;;;5113035;28;20024;-73
2023/06/07 14:16:55;;;;;;;9.32;5.88;;;;;;;;;;5112743;28;20027;-75
2023/06/07 14:19:21;;;;;;;11.27;6.93;;;;;;;;;;5115600;28;20023;-74
2023/06/07 14:21:48;;;;;;;8.10;6.32;;;;;;;;;;5116925;28;20132;-75
2023/06/07 14:24:14;;;;;;;8.30;6.30;;;;;;;;;;5117247;28;20099;-74
2023/06/07 14:26:39;;;;;;;8.10;7.25;;;;;;;;;;5098486;28;20050;-75